Time;durP1;ratioP1;P1;durP2;ratioP2;P2;SDS_P1;SDS_P2;PMS_P1;PMS_P2;Temp;Humidity;BMP_temperature;BMP_pressure;BME280_temperature;BME280_humidity;BME280_pressure;Samples;Min_cycle;Max_cycle;Signal;HPM_P1;HPM_P2
2023/02/06 00:02:09;;;;;;;9.10;2.22;;;;;;;;;;5052120;28;20029;-73
2023/02/06 00:05:13;;;;;;;14.02;2.47;;;;;;;;;;5051457;28;20041;-72
2023/02/06 00:08:18;;;;;;;5.63;1.85;;;;;;;;;;5051639;28;20044;-73
2023/02/06 00:11:22;;;;;;;4.55;1.67;;;;;;;;;;5052191;28;20040;-73
2023/02/06 00:14:26;;;;;;;6.28;1.55;;;;;;;;;;5051815;28;20049;-72
2023/02/06 00:17:35;;;;;;;7.50;2.30;;;;;;;;;;5052429;28;20037;-72
2023/02/06 00:20:40;;;;;;;5.53;2.30;;;;;;;;;;5052035;28;20053;-72
2023/02/06 00:23:45;;;;;;;6.45;2.03;;;;;;;;;;5052597;28;20033;-72
2023/02/06 00:26:49;;;;;;;7.18;2.63;;;;;;;;;;5051115;28;20033;-73
2023/02/06 00:29:56;;;;;;;4.18;1.77;;;;;;;;;;5039672;28;20037;-73
2023/02/06 00:33:00;;;;;;;4.75;2.03;;;;;;;;;;5051956;28;20040;-73
2023/02/06 00:36:05;;;;;;;7.55;1.77;;;;;;;;;;5051014;28;20044;-72
2023/02/06 00:39:09;;;;;;;5.38;1.77;;;;;;;;;;5051749;28;20041;-73
2023/02/06 00:42:14;;;;;;;6.28;2.55;;;;;;;;;;5051770;28;20374;-73
2023/02/06 00:45:18;;;;;;;6.63;2.08;;;;;;;;;;5051620;28;20461;-73
2023/02/06 00:48:23;;;;;;;4.55;1.50;;;;;;;;;;5050740;28;20374;-72
2023/02/06 00:51:27;;;;;;;2.72;1.52;;;;;;;;;;5051572;28;20037;-73
2023/02/06 00:54:31;;;;;;;5.00;1.85;;;;;;;;;;5051455;28;20465;-73
2023/02/06 00:57:36;;;;;;;4.78;1.65;;;;;;;;;;5051223;28;20045;-73
2023/02/06 01:00:40;;;;;;;7.78;1.50;;;;;;;;;;5051458;28;20040;-72
2023/02/06 01:03:44;;;;;;;8.63;2.15;;;;;;;;;;5050430;28;20041;-72
2023/02/06 01:06:49;;;;;;;4.97;1.40;;;;;;;;;;5051301;28;20041;-72
2023/02/06 01:09:53;;;;;;;3.90;1.42;;;;;;;;;;5051255;28;20045;-71
2023/02/06 01:12:58;;;;;;;5.10;1.48;;;;;;;;;;5051003;28;20052;-71
2023/02/06 01:16:02;;;;;;;4.35;1.30;;;;;;;;;;5050092;28;20049;-72
2023/02/06 01:19:07;;;;;;;3.55;1.75;;;;;;;;;;5050504;28;20049;-73
2023/02/06 01:22:11;;;;;;;3.17;1.45;;;;;;;;;;5050017;28;20033;-71
2023/02/06 01:25:16;;;;;;;2.85;1.63;;;;;;;;;;5051112;28;20048;-71
2023/02/06 01:28:20;;;;;;;5.93;1.40;;;;;;;;;;5050745;28;20370;-72
2023/02/06 01:31:26;;;;;;;6.45;1.80;;;;;;;;;;5038702;28;20033;-72
2023/02/06 01:34:30;;;;;;;4.88;1.52;;;;;;;;;;5050976;28;20029;-71
2023/02/06 01:37:35;;;;;;;5.55;1.25;;;;;;;;;;5050880;28;20048;-72
2023/02/06 01:40:40;;;;;;;4.60;1.73;;;;;;;;;;5050364;28;20033;-72
2023/02/06 01:43:45;;;;;;;2.20;1.30;;;;;;;;;;5050831;28;20033;-72
2023/02/06 01:46:51;;;;;;;3.05;1.23;;;;;;;;;;5050733;28;20040;-72
2023/02/06 01:49:55;;;;;;;4.15;1.42;;;;;;;;;;5050086;28;20044;-72
2023/02/06 01:53:00;;;;;;;4.75;1.52;;;;;;;;;;5050513;28;20033;-72
2023/02/06 01:56:07;;;;;;;4.38;1.50;;;6.20;65.40;;;;;;5050957;28;20037;-71
2023/02/06 01:59:13;;;;;;;3.90;1.95;;;;;;;;;;5049679;28;20052;-71
2023/02/06 02:02:17;;;;;;;7.68;1.63;;;;;;;;;;5050538;28;20041;-72
2023/02/06 02:05:22;;;;;;;7.47;1.70;;;;;;;;;;5038688;28;20378;-71
2023/02/06 02:08:31;;;;;;;2.45;1.42;;;;;;;;;;5050644;28;20033;-72
2023/02/06 02:11:37;;;;;;;4.53;1.70;;;;;;;;;;5049558;28;20045;-72
2023/02/06 02:14:42;;;;;;;3.88;1.75;;;;;;;;;;5050235;28;20049;-73
2023/02/06 02:18:01;;;;;;;3.90;1.70;;;5.90;66.50;;;;;;5049832;28;20374;-73
2023/02/06 02:21:50;;;;;;;6.00;1.80;;;6.30;66.80;;;;;;5050112;28;20120;-72
2023/02/06 02:25:15;;;;;;;2.78;1.27;;;;;;;;;;5043593;28;20042;-73
2023/02/06 02:29:00;;;;;;;9.52;1.83;;;6.50;67.30;;;;;;5050561;28;20367;-73
2023/02/06 02:32:05;;;;;;;4.15;1.58;;;;;;;;;;5050085;28;20037;-73
2023/02/06 02:35:09;;;;;;;4.60;1.90;;;;;;;;;;5054253;28;20496;-73
2023/02/06 02:38:26;;;;;;;5.18;1.60;;;;;;;;;;5053377;28;20374;-72
2023/02/06 02:41:39;;;;;;;4.97;1.63;;;;;;;;;;5052987;28;20033;-72
2023/02/06 02:45:12;;;;;;;8.57;1.90;;;7.60;68.20;;;;;;5053099;28;20037;-73
2023/02/06 02:48:23;;;;;;;4.50;1.60;;;;;;;;;;5053008;28;20033;-73
2023/02/06 02:51:30;;;;;;;3.55;1.48;;;;;;;;;;5053889;28;20361;-73
2023/02/06 02:54:34;;;;;;;3.55;1.48;;;;;;;;;;5053165;28;20480;-72
2023/02/06 02:57:39;;;;;;;5.25;1.60;;;;;;;;;;5052398;28;20032;-72
2023/02/06 03:00:52;;;;;;;3.80;1.50;;;5.90;67.00;;;;;;5052585;28;20037;-73
2023/02/06 03:03:59;;;;;;;10.80;1.80;;;7.10;67.80;;;;;;5053477;28;20037;-73
2023/02/06 03:07:21;;;;;;;2.65;1.38;;;6.40;67.00;;;;;;5052662;28;20048;-73
2023/02/06 03:10:32;;;;;;;5.18;1.63;;;;;;;;;;5052875;28;20402;-73
2023/02/06 03:13:59;;;;;;;6.93;1.67;;;;;;;;;;5053485;28;20508;-73
2023/02/06 03:17:09;;;;;;;5.80;2.35;;;;;;;;;;5052305;28;20036;-72
2023/02/06 03:20:16;;;;;;;5.47;2.08;;;;;;;;;;5040861;28;20220;-73
2023/02/06 03:23:23;;;;;;;7.97;3.67;;;;;;;;;;5052287;28;20033;-72
2023/02/06 03:26:28;;;;;;;3.03;1.98;;;;;;;;;;5053198;28;20029;-73
2023/02/06 03:29:34;;;;;;;4.90;2.10;;;;;;;;;;5052766;28;20037;-73
2023/02/06 03:32:44;;;;;;;5.13;2.28;;;;;;;;;;5052815;28;20045;-73
2023/02/06 03:35:48;;;;;;;3.58;1.73;;;;;;;;;;5053248;28;20056;-72
2023/02/06 03:38:53;;;;;;;9.25;1.98;;;;;;;;;;5052748;28;20044;-72
2023/02/06 03:42:01;;;;;;;4.43;2.10;;;;;;;;;;5052809;28;20033;-72
2023/02/06 03:45:10;;;;;;;2.10;1.40;;;;;;;;;;5052340;28;20048;-72
2023/02/06 03:48:31;;;;;;;3.37;1.67;;;7.10;70.20;;;;;;5052904;28;20040;-73
2023/02/06 03:51:39;;;;;;;2.85;1.60;;;;;;;;;;5052728;28;20412;-72
2023/02/06 03:54:46;;;;;;;4.60;1.77;;;;;;;;;;5052726;28;20358;-73
2023/02/06 03:57:56;;;;;;;6.82;1.70;;;;;;;;;;5052978;28;20481;-73
2023/02/06 04:01:01;;;;;;;5.88;1.75;;;;;;;;;;5052588;28;20037;-72
2023/02/06 04:04:06;;;;;;;7.90;1.92;;;;;;;;;;5053108;28;20041;-74
2023/02/06 04:07:24;;;;;;;6.00;2.17;;;;;;;;;;5052448;28;20485;-73
2023/02/06 04:10:28;;;;;;;4.70;1.65;;;;;;;;;;5052579;28;20049;-73
2023/02/06 04:13:33;;;;;;;6.00;1.98;;;;;;;;;;5039946;28;20045;-72
2023/02/06 04:16:37;;;;;;;7.63;1.92;;;;;;;;;;5051892;28;20037;-73
2023/02/06 04:19:41;;;;;;;12.23;3.72;;;;;;;;;;5052104;28;20045;-72
2023/02/06 04:22:46;;;;;;;4.85;2.70;;;;;;;;;;5052154;28;20060;-73
2023/02/06 04:25:50;;;;;;;2.78;2.03;;;;;;;;;;5052245;28;20169;-72
2023/02/06 04:28:54;;;;;;;5.60;2.33;;;;;;;;;;5052097;28;20033;-72
2023/02/06 04:32:01;;;;;;;9.38;2.10;;;;;;;;;;5039792;28;20040;-72
2023/02/06 04:35:05;;;;;;;2.58;1.80;;;;;;;;;;5052018;28;20041;-72
2023/02/06 04:38:09;;;;;;;6.15;2.03;;;;;;;;;;5051540;28;20033;-72
2023/02/06 04:41:14;;;;;;;5.15;2.72;;;;;;;;;;5051543;28;20045;-72
2023/02/06 04:44:18;;;;;;;3.58;1.80;;;;;;;;;;5051931;28;20032;-72
2023/02/06 04:47:23;;;;;;;3.88;2.15;;;;;;;;;;5052033;28;20045;-72
2023/02/06 04:50:30;;;;;;;6.13;2.60;;;;;;;;;;5051774;28;20037;-72
2023/02/06 04:53:34;;;;;;;6.20;2.00;;;;;;;;;;5051517;28;20033;-72
2023/02/06 04:56:39;;;;;;;5.68;2.22;;;;;;;;;;5050813;28;20033;-72
2023/02/06 04:59:43;;;;;;;5.20;2.10;;;;;;;;;;5050348;28;20041;-72
2023/02/06 05:02:48;;;;;;;6.00;1.67;;;;;;;;;;5051683;28;20051;-73
2023/02/06 05:05:52;;;;;;;5.13;1.58;;;;;;;;;;5051253;28;20037;-72
2023/02/06 05:08:57;;;;;;;6.60;1.92;;;;;;;;;;5051542;28;20037;-72
2023/02/06 05:12:02;;;;;;;4.10;1.80;;;;;;;;;;5051126;28;20481;-73
2023/02/06 05:15:06;;;;;;;5.60;2.17;;;;;;;;;;5049950;28;20136;-73
2023/02/06 05:18:10;;;;;;;10.52;2.22;;;;;;;;;;5051989;28;20037;-72
2023/02/06 05:21:14;;;;;;;3.53;1.55;;;;;;;;;;5051079;28;20056;-72
2023/02/06 05:24:19;;;;;;;3.80;2.00;;;;;;;;;;5051282;28;20045;-72
2023/02/06 05:27:24;;;;;;;7.43;2.65;;;;;;;;;;5051219;28;20037;-73
2023/02/06 05:30:28;;;;;;;3.03;1.52;;;;;;;;;;5051915;28;20037;-72
2023/02/06 05:33:32;;;;;;;7.20;1.85;;;;;;;;;;5051498;28;20033;-72
2023/02/06 05:36:38;;;;;;;7.18;2.20;;;;;;;;;;5050965;28;20040;-72
2023/02/06 05:39:42;;;;;;;4.00;1.70;;;;;;;;;;5051550;28;20631;-73
2023/02/06 05:42:46;;;;;;;3.55;1.80;;;;;;;;;;5051453;28;20037;-73
2023/02/06 05:45:51;;;;;;;2.67;1.65;;;;;;;;;;5052019;28;20060;-73
2023/02/06 05:48:55;;;;;;;5.30;1.88;;;;;;;;;;5051350;28;20033;-73
2023/02/06 05:52:00;;;;;;;5.85;2.38;;;;;;;;;;5050894;28;20171;-72
2023/02/06 05:55:04;;;;;;;5.22;2.33;;;;;;;;;;5050889;28;20037;-73
2023/02/06 05:58:08;;;;;;;5.82;2.20;;;;;;;;;;5050960;28;20037;-73
2023/02/06 06:01:13;;;;;;;3.58;2.63;;;;;;;;;;5050402;28;20037;-72
2023/02/06 06:04:17;;;;;;;7.68;2.10;;;;;;;;;;5051112;28;20041;-72
2023/02/06 06:07:22;;;;;;;5.63;2.85;;;;;;;;;;5053835;28;20041;-72
2023/02/06 06:10:26;;;;;;;6.28;2.60;;;;;;;;;;5054607;28;20041;-72
2023/02/06 06:13:30;;;;;;;4.43;2.03;;;;;;;;;;5056457;28;20045;-73
2023/02/06 06:16:35;;;;;;;4.50;1.70;;;;;;;;;;5057399;28;20033;-73
2023/02/06 06:19:39;;;;;;;6.68;1.80;;;;;;;;;;5058853;28;20037;-72
2023/02/06 06:22:43;;;;;;;6.00;1.80;;;;;;;;;;5057194;28;20033;-73
2023/02/06 06:25:48;;;;;;;3.60;2.20;;;;;;;;;;5060026;28;20040;-73
2023/02/06 06:28:52;;;;;;;25.05;6.53;;;;;;;;;;5057145;28;20045;-74
2023/02/06 06:31:57;;;;;;;4.07;1.88;;;;;;;;;;5055570;28;20044;-74
2023/02/06 06:35:01;;;;;;;7.28;2.03;;;;;;;;;;5056079;28;20033;-73
2023/02/06 06:38:06;;;;;;;3.20;1.92;;;;;;;;;;5056869;28;20041;-74
2023/02/06 06:41:10;;;;;;;9.05;2.17;;;;;;;;;;5059348;28;20049;-78
2023/02/06 06:44:14;;;;;;;7.95;3.22;;;;;;;;;;5059980;28;20040;-75
2023/02/06 06:47:19;;;;;;;6.88;1.80;;;;;;;;;;5057890;28;20037;-77
2023/02/06 06:50:23;;;;;;;5.78;2.95;;;;;;;;;;5058527;28;20029;-78
2023/02/06 06:53:27;;;;;;;5.78;2.28;;;;;;;;;;5058255;28;20037;-76
2023/02/06 06:56:32;;;;;;;7.53;2.20;;;;;;;;;;5059755;28;20037;-76
2023/02/06 06:59:37;;;;;;;9.25;2.40;;;;;;;;;;5056978;28;20053;-77
2023/02/06 07:02:41;;;;;;;6.85;1.83;;;;;;;;;;5059672;28;20029;-80
2023/02/06 07:05:46;;;;;;;4.45;1.77;;;;;;;;;;5062463;28;20044;-80
2023/02/06 07:08:50;;;;;;;4.50;2.10;;;;;;;;;;5061969;28;20480;-80
2023/02/06 07:11:55;;;;;;;5.95;2.05;;;;;;;;;;5057233;28;20374;-80
2023/02/06 07:14:59;;;;;;;6.65;2.60;;;;;;;;;;5057871;28;20041;-80
2023/02/06 07:18:03;;;;;;;8.00;2.30;;;;;;;;;;5058564;28;20104;-79
2023/02/06 07:21:08;;;;;;;10.80;2.50;;;;;;;;;;5062188;28;20045;-80
2023/02/06 07:24:12;;;;;;;8.57;2.63;;;;;;;;;;5059185;28;20044;-74
2023/02/06 07:27:17;;;;;;;9.18;2.50;;;;;;;;;;5056461;28;20041;-73
2023/02/06 07:30:22;;;;;;;8.30;2.20;;;4.80;64.40;;;;;;5046340;28;20045;-76
2023/02/06 07:33:26;;;;;;;5.18;2.63;;;;;;;;;;5056294;28;20048;-73
2023/02/06 07:36:31;;;;;;;6.57;2.05;;;;;;;;;;5054969;28;20036;-76
2023/02/06 07:39:35;;;;;;;4.88;2.35;;;;;;;;;;5056048;28;20060;-74
2023/02/06 07:42:43;;;;;;;6.53;2.75;;;;;;;;;;5056952;28;20040;-75
2023/02/06 07:46:01;;;;;;;7.53;2.15;;;;;;;;;;5058955;28;20040;-74
2023/02/06 07:49:05;;;;;;;8.25;3.20;;;;;;;;;;5057618;28;20041;-74
2023/02/06 07:52:09;;;;;;;11.93;2.58;;;;;;;;;;5057504;28;20499;-73
2023/02/06 07:55:13;;;;;;;9.23;2.45;;;;;;;;;;5056427;28;20492;-73
2023/02/06 07:58:19;;;;;;;6.35;2.50;;;;;;;;;;5056753;28;20204;-75
2023/02/06 08:01:23;;;;;;;11.35;2.25;;;;;;;;;;5055046;28;20053;-73
2023/02/06 08:04:33;;;;;;;6.85;2.30;;;;;;;;;;5047530;28;20052;-77
2023/02/06 08:07:38;;;;;;;15.00;2.60;;;;;;;;;;5055609;28;20382;-74
2023/02/06 08:10:42;;;;;;;7.93;2.63;;;;;;;;;;5055982;28;20052;-75
2023/02/06 08:13:47;;;;;;;5.82;2.60;;;;;;;;;;5058942;28;20037;-73
2023/02/06 08:16:52;;;;;;;8.07;2.25;;;;;;;;;;5056380;28;20033;-78
2023/02/06 08:19:59;;;;;;;7.00;2.40;;;;;;;;;;5054268;28;20037;-74
2023/02/06 08:23:03;;;;;;;6.45;2.67;;;;;;;;;;5056314;28;20041;-73
2023/02/06 08:26:11;;;;;;;4.90;2.47;;;;;;;;;;5054226;28;20049;-73
2023/02/06 08:29:16;;;;;;;3.67;2.70;;;;;;;;;;5053244;28;20037;-75
2023/02/06 08:32:20;;;;;;;5.93;2.53;;;;;;;;;;5052012;28;20049;-74
2023/02/06 08:35:25;;;;;;;11.68;2.90;;;;;;;;;;5052494;28;20036;-73
2023/02/06 08:38:31;;;;;;;6.72;2.70;;;;;;;;;;5053202;28;20060;-71
2023/02/06 08:41:37;;;;;;;6.93;2.97;;;;;;;;;;5053189;28;20377;-72
2023/02/06 08:44:41;;;;;;;5.60;2.25;;;;;;;;;;5052554;28;20041;-71
2023/02/06 08:47:45;;;;;;;8.45;2.10;;;;;;;;;;5053986;28;20044;-73
2023/02/06 08:50:50;;;;;;;8.80;2.47;;;;;;;;;;5052276;28;20033;-73
2023/02/06 08:53:55;;;;;;;18.85;3.00;;;;;;;;;;5043949;28;20049;-75
2023/02/06 08:57:01;;;;;;;6.50;2.45;;;;;;;;;;5054835;28;20037;-72
2023/02/06 09:00:06;;;;;;;11.13;3.03;;;;;;;;;;5054134;28;20077;-74
2023/02/06 09:03:11;;;;;;;3.05;1.90;;;;;;;;;;5055850;28;20393;-73
2023/02/06 09:06:15;;;;;;;6.85;2.72;;;;;;;;;;5057421;28;20041;-72
2023/02/06 09:09:20;;;;;;;9.57;2.60;;;;;;;;;;5055718;28;20378;-74
2023/02/06 09:12:24;;;;;;;13.85;3.35;;;;;;;;;;5056892;28;20029;-73
2023/02/06 09:15:29;;;;;;;6.10;2.58;;;;;;;;;;5054911;28;20408;-73
2023/02/06 09:18:33;;;;;;;18.40;3.22;;;;;;;;;;5056552;28;20367;-77
2023/02/06 09:21:38;;;;;;;11.88;3.10;;;;;;;;;;5054009;28;20048;-72
2023/02/06 09:24:42;;;;;;;5.88;1.90;;;;;;;;;;5052128;28;20044;-72
2023/02/06 09:27:49;;;;;;;9.02;2.72;;;;;;;;;;5055552;28;20041;-74
2023/02/06 09:30:54;;;;;;;12.60;3.20;;;;;;;;;;5056149;28;20036;-73
2023/02/06 09:33:59;;;;;;;7.80;2.53;;;;;;;;;;5056146;28;20526;-79
2023/02/06 09:37:04;;;;;;;7.40;2.65;;;;;;;;;;5057340;28;20041;-72
2023/02/06 09:40:11;;;;;;;10.45;3.55;;;;;;;;;;5057515;28;20045;-75
2023/02/06 09:43:17;;;;;;;28.95;3.65;;;;;;;;;;5057728;28;20036;-73
2023/02/06 09:46:26;;;;;;;12.85;2.75;;;;;;;;;;5057817;28;20051;-74
2023/02/06 09:49:42;;;;;;;17.70;2.60;;;;;;;;;;5059604;28;20060;-73
2023/02/06 09:52:53;;;;;;;16.23;2.85;;;;;;;;;;5057558;28;20044;-73
2023/02/06 09:56:02;;;;;;;10.88;2.83;;;;;;;;;;5058189;28;20036;-71
2023/02/06 09:59:09;;;;;;;9.77;2.33;;;;;;;;;;5059411;28;20060;-74
2023/02/06 10:02:16;;;;;;;4.90;2.53;;;;;;;;;;5057880;28;20456;-74
2023/02/06 10:05:24;;;;;;;11.57;3.03;;;;;;;;;;5056363;28;20037;-73
2023/02/06 10:08:41;;;;;;;5.32;2.20;;;;;;;;;;5057080;28;20044;-73
2023/02/06 10:11:51;;;;;;;9.60;2.90;;;;;;;;;;5056421;28;20037;-72
2023/02/06 10:15:02;;;;;;;5.85;1.88;;;;;;;;;;5056037;28;20060;-71
2023/02/06 10:18:11;;;;;;;4.47;2.10;;;;;;;;;;5056251;28;20037;-73
2023/02/06 10:21:47;;;;;;;7.00;2.13;;;7.20;60.90;;;;;;5055723;28;20053;-73
2023/02/06 10:25:11;;;;;;;7.78;2.67;;;;;;;;;;5059187;28;20052;-72
2023/02/06 10:28:21;;;;;;;5.32;2.38;;;;;;;;;;5056615;28;20041;-71
2023/02/06 10:31:27;;;;;;;11.27;3.65;;;;;;;;;;5054940;28;20045;-72
2023/02/06 10:34:31;;;;;;;12.80;3.00;;;;;;;;;;5057494;28;20044;-72
2023/02/06 10:37:46;;;;;;;4.13;2.60;;;;;;;;;;5057315;28;20444;-71
2023/02/06 10:40:54;;;;;;;8.85;3.05;;;;;;;;;;5057655;28;20052;-73
2023/02/06 10:44:30;;;;;;;5.85;2.47;;;;;;;;;;5057930;28;20394;-72
2023/02/06 10:47:35;;;;;;;5.22;2.70;;;;;;;;;;5056436;28;20049;-72
2023/02/06 10:50:42;;;;;;;10.57;3.40;;;;;;;;;;5056610;28;20040;-73
2023/02/06 10:53:51;;;;;;;7.75;2.80;;;;;;;;;;5053695;28;20044;-72
2023/02/06 10:56:57;;;;;;;6.28;2.75;;;;;;;;;;5056471;28;20040;-71
2023/02/06 11:00:03;;;;;;;5.95;2.88;;;;;;;;;;5056797;28;20493;-72
2023/02/06 11:03:12;;;;;;;6.43;2.88;;;;;;;;;;5058288;28;20037;-73
2023/02/06 11:06:19;;;;;;;7.32;3.00;;;;;;;;;;5054916;28;20037;-71
2023/02/06 11:09:24;;;;;;;6.68;2.60;;;;;;;;;;5055444;28;20037;-71
2023/02/06 11:12:42;;;;;;;5.10;2.10;;;;;;;;;;5054438;28;20029;-72
2023/02/06 11:15:54;;;;;;;9.93;2.95;;;;;;;;;;5056362;28;20041;-71
2023/02/06 11:19:01;;;;;;;9.10;2.88;;;;;;;;;;5053827;28;20477;-72
2023/02/06 11:22:14;;;;;;;6.50;3.42;;;;;;;;;;5053528;28;20171;-73
2023/02/06 11:25:25;;;;;;;12.40;4.10;;;;;;;;;;5055466;28;20250;-75
2023/02/06 11:28:30;;;;;;;8.13;2.80;;;;;;;;;;5057148;28;20048;-74
2023/02/06 11:31:40;;;;;;;7.78;3.47;;;;;;;;;;5055932;28;20032;-73
2023/02/06 11:35:19;;;;;;;7.85;2.45;;;8.50;67.20;;;;;;5056854;28;20037;-73
2023/02/06 11:38:26;;;;;;;4.30;2.63;;;;;;;;;;5054472;28;20033;-72
2023/02/06 11:41:30;;;;;;;6.40;3.15;;;;;;;;;;5054202;28;20045;-73
2023/02/06 11:44:38;;;;;;;9.43;5.20;;;;;;;;;;5055420;28;20037;-73
2023/02/06 11:47:45;;;;;;;9.20;3.15;;;;;;;;;;5053512;28;20037;-73
2023/02/06 11:50:53;;;;;;;12.75;6.78;;;;;;;;;;5055534;28;20033;-71
2023/02/06 11:54:00;;;;;;;8.70;3.10;;;6.90;67.50;;;;;;5055405;28;20384;-71
2023/02/06 11:57:21;;;;;;;6.75;3.40;;;;;;;;;;5052749;28;20051;-72
2023/02/06 12:00:26;;;;;;;6.38;3.42;;;;;;;;;;5053765;28;20045;-73
2023/02/06 12:03:30;;;;;;;6.47;3.22;;;;;;;;;;5054513;28;20446;-73
2023/02/06 12:06:36;;;;;;;5.40;3.20;;;;;;;;;;5054523;28;20037;-72
2023/02/06 12:09:41;;;;;;;7.38;3.03;;;;;;;;;;5054396;28;20041;-75
2023/02/06 12:12:48;;;;;;;6.35;3.05;;;;;;;;;;5043975;28;20041;-73
2023/02/06 12:15:56;;;;;;;8.35;3.20;;;;;;;;;;5056901;28;20033;-71
2023/02/06 12:19:03;;;;;;;6.75;3.13;;;;;;;;;;5056374;28;20041;-75
2023/02/06 12:22:15;;;;;;;8.70;3.15;;;;;;;;;;5057829;28;20045;-74
2023/02/06 12:25:34;;;;;;;5.57;3.00;;;7.50;64.90;;;;;;5054729;28;20033;-75
2023/02/06 12:28:57;;;;;;;5.70;2.75;;;;;;;;;;5057540;28;20045;-75
2023/02/06 12:32:07;;;;;;;6.25;2.97;;;;;;;;;;5055777;28;20033;-72
2023/02/06 12:35:20;;;;;;;8.00;3.13;;;;;;;;;;5054788;28;20044;-75
2023/02/06 12:38:42;;;;;;;6.57;3.33;;;6.80;64.50;;;;;;5054212;28;20045;-72
2023/02/06 12:41:52;;;;;;;6.82;3.40;;;;;;;;;;5053423;28;20073;-71
2023/02/06 12:45:21;;;;;;;6.60;3.10;;;9.70;64.00;;;;;;5054566;28;20041;-75
2023/02/06 12:48:40;;;;;;;9.50;3.88;;;9.80;63.70;;;;;;5052300;28;20264;-75
2023/02/06 12:52:04;;;;;;;8.98;2.95;;;7.40;60.50;;;;;;5053567;28;20051;-74
2023/02/06 12:55:12;;;;;;;4.53;2.33;;;;;;;;;;5054050;28;20512;-73
2023/02/06 12:58:30;;;;;;;4.80;2.47;;;;;;;;;;5053767;28;20045;-74
2023/02/06 13:01:53;;;;;;;8.23;2.92;;;;;;;;;;5054853;28;20049;-74
2023/02/06 13:05:04;;;;;;;5.97;2.67;;;5.90;61.90;;;;;;5055193;28;20032;-72
2023/02/06 13:08:12;;;;;;;11.73;4.30;;;;;;;;;;5055087;28;20579;-72
2023/02/06 13:11:23;;;;;;;6.82;3.00;;;;;;;;;;5040876;28;20650;-72
2023/02/06 13:14:28;;;;;;;;;;;;;;;;;;5053518;28;20040;-74
2023/02/06 13:17:37;;;;;;;7.05;3.67;;;;;;;;;;5051835;28;19919;-73
2023/02/06 13:21:01;;;;;;;10.73;3.58;;;;;;;;;;5054321;28;20131;-74
2023/02/06 13:24:14;;;;;;;9.45;3.20;;;;;;;;;;5052902;28;20526;-74
2023/02/06 13:27:40;;;;;;;7.78;4.07;;;6.60;65.60;;;;;;5053894;28;20044;-73
2023/02/06 13:30:46;;;;;;;7.80;3.58;;;;;;;;;;5052025;28;20045;-73
2023/02/06 13:33:53;;;;;;;6.93;4.18;;;;;;;;;;5053435;28;20378;-75
2023/02/06 13:37:17;;;;;;;18.05;5.07;;;;;;;;;;5055529;28;20480;-73
2023/02/06 13:40:29;;;;;;;8.85;4.28;;;;;;;;;;5053525;28;20068;-74
2023/02/06 13:43:34;;;;;;;11.20;4.30;;;;;;;;;;5053412;28;20041;-73
2023/02/06 13:46:51;;;;;;;7.00;3.55;;;;;;;;;;5052352;28;20040;-74
2023/02/06 13:50:29;;;;;;;7.28;3.95;;;8.60;64.30;;;;;;5052825;28;20045;-73
2023/02/06 13:53:37;;;;;;;13.35;4.20;;;;;;;;;;5053125;28;20045;-75
2023/02/06 13:56:59;;;;;;;9.27;3.15;;;8.30;64.80;;;;;;5056122;28;20664;-77
2023/02/06 14:00:30;;;;;;;4.85;3.13;;;5.20;63.10;;;;;;5053403;28;20045;-75
2023/02/06 14:03:37;;;;;;;10.05;3.85;;;;;;;;;;5052769;28;20029;-73
2023/02/06 14:06:47;;;;;;;8.77;3.50;;;;;;;;;;5054005;28;20048;-74
2023/02/06 14:10:00;;;;;;;5.35;3.15;;;;;;;;;;5052572;28;20540;-74
2023/02/06 14:13:06;;;;;;;6.28;3.33;;;;;;;;;;5053211;28;20037;-75
2023/02/06 14:16:15;;;;;;;4.55;3.25;;;;;;;;;;5054127;28;20044;-74
2023/02/06 14:19:25;;;;;;;6.47;3.22;;;;;;;;;;5051240;28;20033;-74
2023/02/06 14:22:30;;;;;;;6.93;3.33;;;;;;;;;;5053103;28;20497;-74
2023/02/06 14:25:34;;;;;;;5.57;3.58;;;;;;;;;;5055029;28;20033;-74
2023/02/06 14:28:53;;;;;;;8.48;3.40;;;;;;;;;;5055892;28;20045;-74
2023/02/06 14:32:16;;;;;;;8.65;3.58;;;7.00;62.10;;;;;;5055909;28;20040;-75
2023/02/06 14:35:33;;;;;;;5.22;3.55;;;;;;;;;;5059792;28;20531;-75
2023/02/06 14:38:50;;;;;;;10.30;3.80;;;;;;;;;;5059747;28;20036;-75
2023/02/06 14:41:55;;;;;;;7.00;4.22;;;;;;;;;;5057158;28;20052;-74
2023/02/06 14:45:28;;;;;;;5.47;3.85;;;;;;;;;;5058308;28;20374;-74
2023/02/06 14:48:38;;;;;;;6.80;3.05;;;;;;;;;;5054865;28;20029;-74
2023/02/06 14:51:42;;;;;;;9.35;3.80;;;;;;;;;;5055461;28;20036;-74
2023/02/06 14:54:47;;;;;;;6.78;3.72;;;;;;;;;;5055555;28;20374;-75
2023/02/06 14:57:51;;;;;;;13.25;3.95;;;;;;;;;;5054240;28;20033;-73
2023/02/06 15:00:57;;;;;;;7.03;3.53;;;;;;;;;;5056486;28;20048;-76
2023/02/06 15:04:10;;;;;;;5.88;3.33;;;;;;;;;;5056521;28;20029;-73
2023/02/06 15:07:27;;;;;;;7.50;3.22;;;;;;;;;;5057466;28;20036;-73
2023/02/06 15:10:34;;;;;;;4.93;2.40;;;;;;;;;;5053768;28;20033;-74
2023/02/06 15:13:39;;;;;;;8.27;3.80;;;;;;;;;;5056521;28;20461;-72
2023/02/06 15:16:47;;;;;;;11.40;3.83;;;;;;;;;;5057841;28;20041;-73
2023/02/06 15:19:51;;;;;;;6.50;4.22;;;;;;;;;;5055491;28;20508;-73
2023/02/06 15:22:57;;;;;;;6.15;3.38;;;;;;;;;;5054909;28;20148;-73
2023/02/06 15:26:12;;;;;;;10.77;4.25;;;;;;;;;;5057551;28;20033;-74
2023/02/06 15:29:28;;;;;;;4.88;3.72;;;;;;;;;;5057869;28;20068;-74
2023/02/06 15:32:37;;;;;;;9.40;4.50;;;7.40;64.10;;;;;;5058619;28;20032;-75
2023/02/06 15:35:47;;;;;;;5.75;3.60;;;;;;;;;;5054894;28;20424;-74
2023/02/06 15:38:53;;;;;;;12.93;4.00;;;;;;;;;;5057385;28;20481;-72
2023/02/06 15:41:57;;;;;;;9.43;3.25;;;;;;;;;;5055345;28;20051;-73
2023/02/06 15:45:02;;;;;;;10.55;3.38;;;;;;;;;;5056355;28;20036;-74
2023/02/06 15:48:11;;;;;;;8.15;4.28;;;;;;;;;;5055658;28;20047;-77
2023/02/06 15:51:27;;;;;;;13.25;4.72;;;;;;;;;;5057514;28;20032;-73
2023/02/06 15:54:32;;;;;;;15.98;5.30;;;;;;;;;;5055910;28;20048;-74
2023/02/06 15:57:42;;;;;;;9.57;4.68;;;;;;;;;;5053277;28;20032;-72
2023/02/06 16:00:49;;;;;;;10.02;4.93;;;;;;;;;;5053679;28;20045;-73
2023/02/06 16:03:56;;;;;;;9.00;3.70;;;;;;;;;;5057727;28;20491;-75
2023/02/06 16:07:13;;;;;;;13.32;5.30;;;;;;;;;;5053126;28;20362;-74
2023/02/06 16:10:24;;;;;;;8.05;5.30;;;;;;;;;;5055337;28;20040;-74
2023/02/06 16:13:29;;;;;;;11.07;6.38;;;;;;;;;;5055305;28;20045;-75
2023/02/06 16:16:34;;;;;;;17.88;5.78;;;;;;;;;;5057008;28;20047;-74
2023/02/06 16:19:41;;;;;;;11.23;4.97;;;;;;;;;;5054906;28;20673;-72
2023/02/06 16:22:45;;;;;;;9.50;4.80;;;;;;;;;;5058583;28;20051;-74
2023/02/06 16:26:06;;;;;;;9.52;4.38;;;;;;;;;;5055683;28;20041;-76
2023/02/06 16:29:12;;;;;;;13.27;6.30;;;;;;;;;;5055040;28;20037;-76
2023/02/06 16:32:28;;;;;;;13.10;5.10;;;;;;;;;;5056074;28;20047;-77
2023/02/06 16:35:32;;;;;;;13.65;6.40;;;;;;;;;;5055801;28;20500;-74
2023/02/06 16:38:37;;;;;;;11.48;5.20;;;;;;;;;;5053783;28;20048;-78
2023/02/06 16:41:42;;;;;;;13.13;5.78;;;;;;;;;;5053108;28;20068;-78
2023/02/06 16:44:48;;;;;;;14.27;6.55;;;;;;;;;;5052884;28;20052;-74
2023/02/06 16:47:53;;;;;;;13.48;6.30;;;;;;;;;;5053053;28;20112;-76
2023/02/06 16:50:58;;;;;;;13.32;6.70;;;;;;;;;;5052765;28;20048;-75
2023/02/06 16:54:05;;;;;;;8.93;4.43;;;;;;;;;;5052155;28;20047;-73
2023/02/06 16:57:19;;;;;;;9.27;5.13;;;;;;;;;;5052620;28;20041;-73
2023/02/06 17:00:30;;;;;;;12.30;5.88;;;;;;;;;;5052923;28;20045;-77
2023/02/06 17:03:37;;;;;;;15.93;7.57;;;;;;;;;;5051794;28;20040;-74
2023/02/06 17:06:42;;;;;;;16.25;8.13;;;;;;;;;;5051938;28;20040;-74
2023/02/06 17:09:47;;;;;;;12.30;6.20;;;;;;;;;;5051829;28;20385;-71
2023/02/06 17:12:51;;;;;;;7.03;5.60;;;;;;;;;;5051938;28;20108;-73
2023/02/06 17:15:55;;;;;;;11.15;5.13;;;;;;;;;;5052117;28;20049;-73
2023/02/06 17:19:00;;;;;;;9.13;6.40;;;;;;;;;;5051808;28;20048;-75
2023/02/06 17:22:05;;;;;;;12.05;5.53;;;;;;;;;;5053583;28;20049;-76
2023/02/06 17:25:09;;;;;;;12.85;6.88;;;;;;;;;;5052823;28;20052;-73
2023/02/06 17:28:15;;;;;;;12.77;8.13;;;;;;;;;;5053432;28;20044;-74
2023/02/06 17:31:20;;;;;;;11.40;6.00;;;;;;;;;;5051819;28;20051;-73
2023/02/06 17:34:29;;;;;;;21.67;4.25;;;;;;;;;;5053700;28;20056;-73
2023/02/06 17:37:35;;;;;;;19.13;7.43;;;;;;;;;;5052175;28;20040;-73
2023/02/06 17:40:39;;;;;;;18.70;7.82;;;;;;;;;;5051380;28;20417;-75
2023/02/06 17:43:43;;;;;;;12.07;6.10;;;;;;;;;;5051670;28;20055;-74
2023/02/06 17:46:48;;;;;;;18.23;6.90;;;;;;;;;;5051221;28;20048;-74
2023/02/06 17:49:52;;;;;;;14.10;6.82;;;;;;;;;;5050414;28;20052;-76
2023/02/06 17:52:58;;;;;;;9.52;5.97;;;;;;;;;;5051615;28;20040;-74
2023/02/06 17:56:11;;;;;;;14.00;5.80;;;;;;;;;;5050996;28;20033;-74
2023/02/06 17:59:15;;;;;;;11.07;6.10;;;;;;;;;;5051366;28;20044;-73
2023/02/06 18:02:20;;;;;;;17.08;6.28;;;;;;;;;;5051438;28;20056;-72
2023/02/06 18:05:24;;;;;;;14.70;5.18;;;;;;;;;;5054624;28;20048;-74
2023/02/06 18:08:29;;;;;;;12.40;5.32;;;;;;;;;;5055400;28;20492;-73
2023/02/06 18:11:34;;;;;;;10.57;5.88;;;;;;;;;;5055781;28;20052;-74
2023/02/06 18:14:39;;;;;;;6.70;3.88;;;;;;;;;;5042243;28;20512;-74
2023/02/06 18:17:44;;;;;;;26.63;12.45;;;;;;;;;;5055390;28;20381;-75
2023/02/06 18:20:48;;;;;;;15.10;9.60;;;;;;;;;;5054229;28;20048;-74
2023/02/06 18:23:53;;;;;;;12.30;6.82;;;;;;;;;;5042541;28;20147;-72
2023/02/06 18:27:01;;;;;;;12.55;6.75;;;;;;;;;;5055365;28;20040;-73
2023/02/06 18:30:06;;;;;;;7.10;5.03;;;;;;;;;;5054563;28;20036;-74
2023/02/06 18:33:11;;;;;;;7.38;3.92;;;;;;;;;;5044423;28;20037;-73